| Back to River Map | <<< Previous Forecast Point | | | Next Forecast Point >>> | Printer Version | Graph Version |  |
|
CACHE CREEK - YOLO (YLOC1)
| Latitude: 38.73º N | Longitude: 121.81º W | Elevation: 86 Feet | | Forecast Type: Official Location |
| Location: Yolo County in California | Bulletin Group: Lower Sacramento | River Group: Cache Putah |
| Issuance Time: | May 07 2026 at 7:27 AM PDT | Next Issuance: | May 08 2026 at 9:00 AM PDT
| |
| Action/Monitor: 75.0 Feet | Minor Flood: 81.0 Feet | Moderate Flood: 81.5 Feet | Major Flood: 84.1 Feet |
# Tabular Observed and Forecast Hydrograph Information
#
# Location: Cache Creek - Yolo (YLOC1)
#
# File Generation Time: 05/07/2026 at 07:28 AM PDT
# Data Interval: 1 Hour
#
# Most Recent Date & Time of Maximum Observed: 05/05/2026 at 07:00 AM PDT
# Maximum Observed Stage: 48.40 Feet
# Maximum Observed Flow: 19 cfs
#
# Earliest Date & Time of Maximum Forecast: 05/07/2026 at 08:00 AM PDT
# Maximum Forecast Stage: 48.35 Feet
# Maximum Forecast Flow: 17 cfs
#
# OBSERVED
#
# Date & Time (Local) Stage (Feet) Flow (cfs) Trend Observed Status
# ---------------------------------------------------------------------------------
05/02/2026 07 AM PDT 47.68 0 Normal
05/02/2026 08 AM PDT 47.68 0 0 Normal
05/02/2026 09 AM PDT 47.68 0 0 Normal
05/02/2026 10 AM PDT 47.68 0 0 Normal
05/02/2026 11 AM PDT 47.68 0 0 Normal
05/02/2026 12 PM PDT 47.68 0 0 Normal
05/02/2026 01 PM PDT 47.68 0 0 Normal
05/02/2026 02 PM PDT 47.68 0 0 Normal
05/02/2026 03 PM PDT 47.68 0 0 Normal
05/02/2026 04 PM PDT 47.68 0 0 Normal
05/02/2026 05 PM PDT 47.68 0 0 Normal
05/02/2026 06 PM PDT 47.68 0 0 Normal
05/02/2026 07 PM PDT 47.68 0 0 Normal
05/02/2026 08 PM PDT 47.68 0 0 Normal
05/02/2026 09 PM PDT 47.68 0 0 Normal
05/02/2026 10 PM PDT 47.68 0 0 Normal
05/02/2026 11 PM PDT 47.68 0 0 Normal
05/03/2026 12 AM PDT 47.68 0 0 Normal
05/03/2026 01 AM PDT 47.68 0 0 Normal
05/03/2026 02 AM PDT 47.68 0 0 Normal
05/03/2026 03 AM PDT 47.68 0 0 Normal
05/03/2026 04 AM PDT 47.68 0 0 Normal
05/03/2026 05 AM PDT 47.68 0 0 Normal
05/03/2026 06 AM PDT 47.68 0 0 Normal
05/03/2026 07 AM PDT 47.68 0 0 Normal
05/03/2026 08 AM PDT 47.68 0 0 Normal
05/03/2026 09 AM PDT 47.68 0 0 Normal
05/03/2026 10 AM PDT 47.68 0 0 Normal
05/03/2026 11 AM PDT 47.80 0 + Normal
05/03/2026 12 PM PDT 48.08 6 + Normal
05/03/2026 01 PM PDT 48.14 7 + Normal
05/03/2026 02 PM PDT 48.13 7 - Normal
05/03/2026 03 PM PDT 48.13 7 0 Normal
05/03/2026 04 PM PDT 48.11 6 - Normal
05/03/2026 05 PM PDT 48.11 6 0 Normal
05/03/2026 06 PM PDT 48.11 6 0 Normal
05/03/2026 07 PM PDT 48.11 6 0 Normal
05/03/2026 08 PM PDT 48.10 6 - Normal
05/03/2026 09 PM PDT 48.08 6 - Normal
05/03/2026 10 PM PDT 48.07 5 - Normal
05/03/2026 11 PM PDT 48.07 5 0 Normal
05/04/2026 12 AM PDT 48.13 7 + Normal
05/04/2026 01 AM PDT 48.19 9 + Normal
05/04/2026 02 AM PDT 48.22 10 + Normal
05/04/2026 03 AM PDT 48.23 11 + Normal
05/04/2026 04 AM PDT 48.25 12 + Normal
05/04/2026 05 AM PDT 48.26 12 + Normal
05/04/2026 06 AM PDT 48.27 13 + Normal
05/04/2026 07 AM PDT 48.28 13 + Normal
05/04/2026 08 AM PDT 48.28 13 0 Normal
05/04/2026 09 AM PDT 48.27 13 - Normal
05/04/2026 10 AM PDT 48.27 13 0 Normal
05/04/2026 11 AM PDT 48.27 13 0 Normal
05/04/2026 12 PM PDT 48.26 12 - Normal
05/04/2026 01 PM PDT 48.25 12 - Normal
05/04/2026 02 PM PDT 48.24 11 - Normal
05/04/2026 03 PM PDT 48.22 10 - Normal
05/04/2026 04 PM PDT 48.20 10 - Normal
05/04/2026 05 PM PDT 48.19 9 - Normal
05/04/2026 06 PM PDT 48.18 9 - Normal
05/04/2026 07 PM PDT 48.17 8 - Normal
05/04/2026 08 PM PDT 48.18 9 + Normal
05/04/2026 09 PM PDT 48.18 9 0 Normal
05/04/2026 10 PM PDT 48.17 8 - Normal
05/04/2026 11 PM PDT 48.18 9 + Normal
05/05/2026 12 AM PDT 48.21 10 + Normal
05/05/2026 01 AM PDT 48.25 12 + Normal
05/05/2026 02 AM PDT 48.30 14 + Normal
05/05/2026 03 AM PDT 48.34 16 + Normal
05/05/2026 04 AM PDT 48.38 18 + Normal
05/05/2026 05 AM PDT 48.40 19 + Normal
05/05/2026 06 AM PDT 48.40 19 0 Normal
05/05/2026 07 AM PDT 48.40 19 0 Normal
05/05/2026 08 AM PDT 48.36 17 - Normal
05/05/2026 09 AM PDT 48.34 16 - Normal
05/05/2026 10 AM PDT 48.32 15 - Normal
05/05/2026 11 AM PDT 48.30 14 - Normal
05/05/2026 12 PM PDT 48.28 13 - Normal
05/05/2026 01 PM PDT 48.27 13 - Normal
05/05/2026 02 PM PDT 48.25 12 - Normal
05/05/2026 03 PM PDT 48.24 11 - Normal
05/05/2026 04 PM PDT 48.24 11 0 Normal
05/05/2026 05 PM PDT 48.23 11 - Normal
05/05/2026 06 PM PDT 48.22 10 - Normal
05/05/2026 07 PM PDT 48.21 10 - Normal
05/05/2026 08 PM PDT 48.20 10 - Normal
05/05/2026 09 PM PDT 48.17 8 - Normal
05/05/2026 10 PM PDT 48.16 8 - Normal
05/05/2026 11 PM PDT 48.15 8 - Normal
05/06/2026 12 AM PDT 48.14 7 - Normal
05/06/2026 01 AM PDT 48.17 8 + Normal
05/06/2026 02 AM PDT 48.22 10 + Normal
05/06/2026 03 AM PDT 48.24 11 + Normal
05/06/2026 04 AM PDT 48.26 12 + Normal
05/06/2026 05 AM PDT 48.27 13 + Normal
05/06/2026 06 AM PDT 48.28 13 + Normal
05/06/2026 07 AM PDT 48.29 14 + Normal
05/06/2026 08 AM PDT 48.29 14 0 Normal
05/06/2026 09 AM PDT 48.29 14 0 Normal
05/06/2026 10 AM PDT 48.29 14 0 Normal
05/06/2026 11 AM PDT 48.28 13 - Normal
05/06/2026 12 PM PDT 48.28 13 0 Normal
05/06/2026 01 PM PDT 48.27 13 - Normal
05/06/2026 02 PM PDT 48.25 12 - Normal
05/06/2026 03 PM PDT 48.24 11 - Normal
05/06/2026 04 PM PDT 48.21 10 - Normal
05/06/2026 05 PM PDT 48.19 9 - Normal
05/06/2026 06 PM PDT 48.17 8 - Normal
05/06/2026 07 PM PDT 48.17 8 0 Normal
05/06/2026 08 PM PDT 48.16 8 - Normal
05/06/2026 09 PM PDT 48.16 8 0 Normal
05/06/2026 10 PM PDT 48.15 8 - Normal
05/06/2026 11 PM PDT 48.16 8 + Normal
05/07/2026 12 AM PDT 48.21 10 + Normal
05/07/2026 01 AM PDT 48.23 11 + Normal
05/07/2026 02 AM PDT 48.26 12 + Normal
05/07/2026 03 AM PDT 48.31 14 + Normal
05/07/2026 04 AM PDT 48.35 17 + Normal
05/07/2026 05 AM PDT 48.37 18 + Normal
05/07/2026 06 AM PDT 48.36 17 - Normal
05/07/2026 07 AM PDT 48.36 17 0 Normal
#
# FORECAST
#
# Date & Time (Local) Stage (Feet) Flow (cfs) Trend Forecast Status
# ---------------------------------------------------------------------------------
05/07/2026 08 AM PDT 48.35 17 Normal
05/07/2026 09 AM PDT 48.34 16 - Normal
05/07/2026 10 AM PDT 48.34 16 0 Normal
05/07/2026 11 AM PDT 48.33 15 - Normal
05/07/2026 12 PM PDT 48.32 15 - Normal
05/07/2026 01 PM PDT 48.32 15 0 Normal
05/07/2026 02 PM PDT 48.31 14 - Normal
05/07/2026 03 PM PDT 48.30 14 - Normal
05/07/2026 04 PM PDT 48.29 14 - Normal
05/07/2026 05 PM PDT 48.29 14 0 Normal
05/07/2026 06 PM PDT 48.28 13 - Normal
05/07/2026 07 PM PDT 48.27 13 - Normal
05/07/2026 08 PM PDT 48.26 12 - Normal
05/07/2026 09 PM PDT 48.26 12 0 Normal
05/07/2026 10 PM PDT 48.25 12 - Normal
05/07/2026 11 PM PDT 48.24 11 - Normal
05/08/2026 12 AM PDT 48.23 11 - Normal
05/08/2026 01 AM PDT 48.22 10 - Normal
05/08/2026 02 AM PDT 48.22 10 0 Normal
05/08/2026 03 AM PDT 48.21 10 - Normal
05/08/2026 04 AM PDT 48.20 10 - Normal
05/08/2026 05 AM PDT 48.19 9 - Normal
05/08/2026 06 AM PDT 48.18 9 - Normal
05/08/2026 07 AM PDT 48.17 8 - Normal
05/08/2026 08 AM PDT 48.16 8 - Normal
05/08/2026 09 AM PDT 48.15 8 - Normal
05/08/2026 10 AM PDT 48.14 7 - Normal
05/08/2026 11 AM PDT 48.13 7 - Normal
05/08/2026 12 PM PDT 48.12 7 - Normal
05/08/2026 01 PM PDT 48.11 6 - Normal
05/08/2026 02 PM PDT 48.10 6 - Normal
05/08/2026 03 PM PDT 48.08 6 - Normal
05/08/2026 04 PM PDT 48.07 5 - Normal
05/08/2026 05 PM PDT 48.06 5 - Normal
05/08/2026 06 PM PDT 48.05 5 - Normal
05/08/2026 07 PM PDT 48.03 4 - Normal
05/08/2026 08 PM PDT 48.02 4 - Normal
05/08/2026 09 PM PDT 48.00 3 - Normal
05/08/2026 10 PM PDT 47.99 3 - Normal
05/08/2026 11 PM PDT 47.97 3 - Normal
05/09/2026 12 AM PDT 47.95 2 - Normal
05/09/2026 01 AM PDT 47.93 2 - Normal
05/09/2026 02 AM PDT 47.91 2 - Normal
05/09/2026 03 AM PDT 47.89 1 - Normal
05/09/2026 04 AM PDT 47.86 1 - Normal
05/09/2026 05 AM PDT 47.83 1 - Normal
05/09/2026 06 AM PDT 47.78 0 - Normal
05/09/2026 07 AM PDT 47.68 0 - Normal
05/09/2026 08 AM PDT 47.68 0 0 Normal
05/09/2026 09 AM PDT 47.68 0 0 Normal
05/09/2026 10 AM PDT 47.68 0 0 Normal
05/09/2026 11 AM PDT 47.68 0 0 Normal
05/09/2026 12 PM PDT 47.68 0 0 Normal
05/09/2026 01 PM PDT 47.68 0 0 Normal
05/09/2026 02 PM PDT 47.68 0 0 Normal
05/09/2026 03 PM PDT 47.68 0 0 Normal
05/09/2026 04 PM PDT 47.68 0 0 Normal
05/09/2026 05 PM PDT 47.68 0 0 Normal
05/09/2026 06 PM PDT 47.68 0 0 Normal
05/09/2026 07 PM PDT 47.68 0 0 Normal
05/09/2026 08 PM PDT 47.68 0 0 Normal
05/09/2026 09 PM PDT 47.68 0 0 Normal
05/09/2026 10 PM PDT 47.68 0 0 Normal
05/09/2026 11 PM PDT 47.68 0 0 Normal
05/10/2026 12 AM PDT 47.68 0 0 Normal
05/10/2026 01 AM PDT 47.68 0 0 Normal
05/10/2026 02 AM PDT 47.68 0 0 Normal
05/10/2026 03 AM PDT 47.68 0 0 Normal
05/10/2026 04 AM PDT 47.68 0 0 Normal
05/10/2026 05 AM PDT 47.68 0 0 Normal
05/10/2026 06 AM PDT 47.68 0 0 Normal
05/10/2026 07 AM PDT 47.68 0 0 Normal
05/10/2026 08 AM PDT 47.68 0 0 Normal
05/10/2026 09 AM PDT 47.68 0 0 Normal
05/10/2026 10 AM PDT 47.68 0 0 Normal
05/10/2026 11 AM PDT 47.68 0 0 Normal
05/10/2026 12 PM PDT 47.68 0 0 Normal
05/10/2026 01 PM PDT 47.68 0 0 Normal
05/10/2026 02 PM PDT 47.68 0 0 Normal
05/10/2026 03 PM PDT 47.68 0 0 Normal
05/10/2026 04 PM PDT 47.68 0 0 Normal
05/10/2026 05 PM PDT 47.68 0 0 Normal
05/10/2026 06 PM PDT 47.68 0 0 Normal
05/10/2026 07 PM PDT 47.68 0 0 Normal
05/10/2026 08 PM PDT 47.68 0 0 Normal
05/10/2026 09 PM PDT 47.68 0 0 Normal
05/10/2026 10 PM PDT 47.68 0 0 Normal
05/10/2026 11 PM PDT 47.68 0 0 Normal
05/11/2026 12 AM PDT 47.68 0 0 Normal
05/11/2026 01 AM PDT 47.68 0 0 Normal
05/11/2026 02 AM PDT 47.68 0 0 Normal
05/11/2026 03 AM PDT 47.68 0 0 Normal
05/11/2026 04 AM PDT 47.68 0 0 Normal
05/11/2026 05 AM PDT 47.68 0 0 Normal
05/11/2026 06 AM PDT 47.68 0 0 Normal
05/11/2026 07 AM PDT 47.68 0 0 Normal
05/11/2026 08 AM PDT 47.68 0 0 Normal
05/11/2026 09 AM PDT 47.68 0 0 Normal
05/11/2026 10 AM PDT 47.68 0 0 Normal
05/11/2026 11 AM PDT 47.68 0 0 Normal
05/11/2026 12 PM PDT 47.68 0 0 Normal
05/11/2026 01 PM PDT 47.68 0 0 Normal
05/11/2026 02 PM PDT 47.68 0 0 Normal
05/11/2026 03 PM PDT 47.68 0 0 Normal
05/11/2026 04 PM PDT 47.68 0 0 Normal
05/11/2026 05 PM PDT 47.68 0 0 Normal
05/11/2026 06 PM PDT 47.68 0 0 Normal
05/11/2026 07 PM PDT 47.68 0 0 Normal
05/11/2026 08 PM PDT 47.68 0 0 Normal
05/11/2026 09 PM PDT 47.68 0 0 Normal
05/11/2026 10 PM PDT 47.68 0 0 Normal
05/11/2026 11 PM PDT 47.68 0 0 Normal
05/12/2026 12 AM PDT 47.68 0 0 Normal
05/12/2026 01 AM PDT 47.68 0 0 Normal
05/12/2026 02 AM PDT 47.68 0 0 Normal
05/12/2026 03 AM PDT 47.68 0 0 Normal
05/12/2026 04 AM PDT 47.68 0 0 Normal
05/12/2026 05 AM PDT 47.68 0 0 Normal
#
# NOTE 1: Stages are rounded to the nearest hundredth (.01) of a foot.
# NOTE 2: Flows are rounded to the nearest (1) cfs.
# NOTE 3: Trends are determined using hourly change in unrounded stage and flow.
# NOTE 4: Maximum Values are determined using unrounded stage and flow.
|